createdAt,value
2023-05-04T00:00:38.959Z,1020.97
2023-05-04T00:01:38.972Z,1020.94
2023-05-04T00:02:39.060Z,1021.03
2023-05-04T00:03:39.149Z,1021.00
2023-05-04T00:04:39.035Z,1021.04
2023-05-04T00:05:39.021Z,1021.03
2023-05-04T00:06:39.030Z,1021.03
2023-05-04T00:07:39.066Z,1020.99
2023-05-04T00:08:39.065Z,1020.98
2023-05-04T00:09:39.069Z,1020.95
2023-05-04T00:10:39.087Z,1020.96
2023-05-04T00:11:39.093Z,1020.92
2023-05-04T00:12:39.135Z,1020.90
2023-05-04T00:13:39.137Z,1020.93
2023-05-04T00:14:39.139Z,1020.92
2023-05-04T00:15:39.142Z,1020.91
2023-05-04T00:16:39.755Z,1020.91
2023-05-04T00:17:39.209Z,1020.94
2023-05-04T00:18:39.181Z,1020.92
2023-05-04T00:19:39.193Z,1020.90
2023-05-04T00:20:39.218Z,1020.92
2023-05-04T00:21:39.237Z,1020.91
2023-05-04T00:22:39.226Z,1020.95
2023-05-04T00:23:39.245Z,1020.94
2023-05-04T00:24:39.250Z,1020.92
2023-05-04T00:25:39.260Z,1020.95
2023-05-04T00:26:39.276Z,1020.92
2023-05-04T00:27:39.287Z,1020.89
2023-05-04T00:28:39.298Z,1020.90
2023-05-04T00:29:39.312Z,1020.89
2023-05-04T00:30:39.322Z,1020.90
2023-05-04T00:31:39.371Z,1020.92
2023-05-04T00:32:39.359Z,1020.91
2023-05-04T00:33:39.361Z,1020.91
2023-05-04T00:34:39.374Z,1020.90
2023-05-04T00:35:39.386Z,1020.89
2023-05-04T00:36:39.400Z,1020.94
2023-05-04T00:37:39.418Z,1020.92
2023-05-04T00:38:39.422Z,1020.91
2023-05-04T00:39:39.433Z,1020.91
2023-05-04T00:40:39.445Z,1020.90
2023-05-04T00:41:39.464Z,1020.89
2023-05-04T00:42:39.475Z,1020.93
2023-05-04T00:43:39.483Z,1020.90
2023-05-04T00:44:39.501Z,1020.91
2023-05-04T00:45:39.505Z,1020.93
2023-05-04T00:46:39.590Z,1020.88
2023-05-04T00:47:39.540Z,1020.88
2023-05-04T00:48:39.561Z,1020.86
2023-05-04T00:49:39.554Z,1020.86
2023-05-04T00:50:39.565Z,1020.86
2023-05-04T00:51:39.582Z,1020.87
2023-05-04T00:52:39.598Z,1020.86
2023-05-04T00:53:39.609Z,1020.84
2023-05-04T00:54:39.615Z,1020.81
2023-05-04T00:55:39.633Z,1020.83
2023-05-04T00:56:39.640Z,1020.82
2023-05-04T00:57:39.650Z,1020.80
2023-05-04T00:58:39.663Z,1020.81
2023-05-04T00:59:39.683Z,1020.77
2023-05-04T01:00:39.722Z,1020.79
2023-05-04T01:01:39.703Z,1020.79
2023-05-04T01:02:39.756Z,1020.84
2023-05-04T01:03:39.778Z,1020.80
2023-05-04T01:04:39.737Z,1020.81
2023-05-04T01:05:39.746Z,1020.82
2023-05-04T01:06:39.761Z,1020.79
2023-05-04T01:07:39.775Z,1020.78
2023-05-04T01:08:39.787Z,1020.77
2023-05-04T01:09:39.805Z,1020.79
2023-05-04T01:10:39.808Z,1020.75
2023-05-04T01:11:39.821Z,1020.77
2023-05-04T01:12:39.859Z,1020.78
2023-05-04T01:13:39.846Z,1020.75
2023-05-04T01:14:39.861Z,1020.75
2023-05-04T01:15:39.884Z,1020.77
2023-05-04T01:16:39.919Z,1020.74
2023-05-04T01:17:39.950Z,1020.75
2023-05-04T01:18:39.908Z,1020.71
2023-05-04T01:19:39.918Z,1020.76
2023-05-04T01:20:39.933Z,1020.75
2023-05-04T01:21:39.943Z,1020.73
2023-05-04T01:22:39.986Z,1020.70
2023-05-04T01:23:39.980Z,1020.74
2023-05-04T01:24:40.015Z,1020.74
2023-05-04T01:25:39.995Z,1020.71
2023-05-04T01:26:40.003Z,1020.70
2023-05-04T01:27:40.017Z,1020.76
2023-05-04T01:28:40.053Z,1020.72
2023-05-04T01:29:40.058Z,1020.74
2023-05-04T01:30:40.105Z,1020.80
2023-05-04T01:31:40.094Z,1020.77
2023-05-04T01:32:40.098Z,1020.80
2023-05-04T01:33:40.105Z,1020.73
2023-05-04T01:34:40.098Z,1020.74
2023-05-04T01:35:40.127Z,1020.71
2023-05-04T01:36:40.135Z,1020.74
2023-05-04T01:37:40.141Z,1020.76
2023-05-04T01:38:40.151Z,1020.79
2023-05-04T01:39:40.158Z,1020.76
2023-05-04T01:40:40.175Z,1020.77
2023-05-04T01:41:40.181Z,1020.74
2023-05-04T01:42:40.193Z,1020.77
2023-05-04T01:43:40.201Z,1020.73
2023-05-04T01:44:40.214Z,1020.76
2023-05-04T01:45:40.231Z,1020.74
2023-05-04T01:46:40.290Z,1020.71
2023-05-04T01:47:40.270Z,1020.70
2023-05-04T01:48:40.260Z,1020.74
2023-05-04T01:49:40.271Z,1020.70
2023-05-04T01:50:40.283Z,1020.71
2023-05-04T01:51:40.296Z,1020.71
2023-05-04T01:52:40.308Z,1020.71
2023-05-04T01:53:40.320Z,1020.67
2023-05-04T01:54:40.333Z,1020.70
2023-05-04T01:55:40.346Z,1020.70
2023-05-04T01:56:40.354Z,1020.65
2023-05-04T01:57:40.421Z,1020.65
2023-05-04T01:58:40.378Z,1020.62
2023-05-04T01:59:40.389Z,1020.65
2023-05-04T02:00:40.401Z,1020.61
2023-05-04T02:01:40.437Z,1020.61
2023-05-04T02:02:40.467Z,1020.65
2023-05-04T02:03:40.534Z,1020.61
2023-05-04T02:04:40.447Z,1020.61
2023-05-04T02:05:40.460Z,1020.64
2023-05-04T02:06:40.502Z,1020.65
2023-05-04T02:07:40.485Z,1020.62
2023-05-04T02:08:40.497Z,1020.60
2023-05-04T02:09:40.515Z,1020.65
2023-05-04T02:10:40.524Z,1020.60
2023-05-04T02:11:40.533Z,1020.61
2023-05-04T02:12:40.608Z,1020.62
2023-05-04T02:13:40.560Z,1020.61
2023-05-04T02:14:40.567Z,1020.64
2023-05-04T02:15:40.621Z,1020.61
2023-05-04T02:16:40.644Z,1020.67
2023-05-04T02:17:40.638Z,1020.67
2023-05-04T02:18:40.629Z,1020.66
2023-05-04T02:19:40.634Z,1020.63
2023-05-04T02:20:40.635Z,1020.61
2023-05-04T02:21:40.656Z,1020.63
2023-05-04T02:22:40.666Z,1020.61
2023-05-04T02:23:40.675Z,1020.62
2023-05-04T02:24:40.681Z,1020.57
2023-05-04T02:25:40.702Z,1020.59
2023-05-04T02:26:40.721Z,1020.56
2023-05-04T02:27:40.721Z,1020.58
2023-05-04T02:28:40.743Z,1020.58
2023-05-04T02:29:40.745Z,1020.62
2023-05-04T02:30:40.756Z,1020.63
2023-05-04T02:31:40.793Z,1020.59
2023-05-04T02:32:40.806Z,1020.59
2023-05-04T02:33:40.789Z,1020.59
2023-05-04T02:34:40.802Z,1020.60
2023-05-04T02:35:40.836Z,1020.61
2023-05-04T02:36:40.827Z,1020.59
2023-05-04T02:37:40.839Z,1020.61
2023-05-04T02:38:40.851Z,1020.60
2023-05-04T02:39:40.861Z,1020.64
2023-05-04T02:40:40.872Z,1020.64
2023-05-04T02:41:40.895Z,1020.63
2023-05-04T02:42:40.904Z,1020.63
2023-05-04T02:43:40.907Z,1020.59
2023-05-04T02:44:40.919Z,1020.59
2023-05-04T02:45:40.957Z,1020.62
2023-05-04T02:46:40.944Z,1020.60
2023-05-04T02:47:40.981Z,1020.56
2023-05-04T02:48:40.966Z,1020.57
2023-05-04T02:49:40.979Z,1020.57
2023-05-04T02:50:40.992Z,1020.53
2023-05-04T02:51:41.007Z,1020.57
2023-05-04T02:52:41.021Z,1020.59
2023-05-04T02:53:41.046Z,1020.56
2023-05-04T02:54:41.039Z,1020.55
2023-05-04T02:55:41.058Z,1020.53
2023-05-04T02:56:41.066Z,1020.54
2023-05-04T02:57:41.072Z,1020.59
2023-05-04T02:58:41.090Z,1020.61
2023-05-04T02:59:41.093Z,1020.60
2023-05-04T03:00:41.109Z,1020.61
2023-05-04T03:01:41.162Z,1020.60
2023-05-04T03:02:41.177Z,1020.57
2023-05-04T03:03:41.144Z,1020.56
2023-05-04T03:04:41.275Z,1020.57
2023-05-04T03:05:41.173Z,1020.52
2023-05-04T03:06:41.177Z,1020.57
2023-05-04T03:07:41.192Z,1020.58
2023-05-04T03:08:41.217Z,1020.57
2023-05-04T03:09:41.218Z,1020.58
2023-05-04T03:10:41.236Z,1020.56
2023-05-04T03:11:41.236Z,1020.55
2023-05-04T03:12:41.273Z,1020.54
2023-05-04T03:13:41.260Z,1020.54
2023-05-04T03:14:41.277Z,1020.51
2023-05-04T03:15:41.283Z,1020.58
2023-05-04T03:16:41.324Z,1020.54
2023-05-04T03:17:41.353Z,1020.57
2023-05-04T03:18:41.319Z,1020.52
2023-05-04T03:19:41.330Z,1020.53
2023-05-04T03:20:41.345Z,1020.52
2023-05-04T03:21:41.350Z,1020.52
2023-05-04T03:22:41.364Z,1020.51
2023-05-04T03:23:41.373Z,1020.50
2023-05-04T03:24:41.385Z,1020.52
2023-05-04T03:25:41.401Z,1020.48
2023-05-04T03:26:41.406Z,1020.50
2023-05-04T03:27:41.418Z,1020.49
2023-05-04T03:28:41.431Z,1020.49
2023-05-04T03:29:41.442Z,1020.47
2023-05-04T03:30:41.456Z,1020.50
2023-05-04T03:31:41.515Z,1020.49
2023-05-04T03:32:41.485Z,1020.55
2023-05-04T03:33:41.489Z,1020.54
2023-05-04T03:34:41.508Z,1020.50
2023-05-04T03:35:41.517Z,1020.50
2023-05-04T03:36:41.546Z,1020.51
2023-05-04T03:37:41.533Z,1020.55
2023-05-04T03:38:41.555Z,1020.53
2023-05-04T03:39:41.564Z,1020.52
2023-05-04T03:40:41.567Z,1020.51
2023-05-04T03:41:41.585Z,1020.57
2023-05-04T03:42:41.590Z,1020.56
2023-05-04T03:43:41.607Z,1020.53
2023-05-04T03:44:41.613Z,1020.55
2023-05-04T03:45:41.636Z,1020.50
2023-05-04T03:46:41.635Z,1020.50
2023-05-04T03:47:41.713Z,1020.50
2023-05-04T03:48:41.663Z,1020.45
2023-05-04T03:49:41.667Z,1020.47
2023-05-04T03:50:41.687Z,1020.44
2023-05-04T03:51:41.695Z,1020.45
2023-05-04T03:52:41.705Z,1020.43
2023-05-04T03:53:44.052Z,1020.45
2023-05-04T03:54:41.726Z,1020.43
2023-05-04T03:55:41.743Z,1020.46
2023-05-04T03:56:41.750Z,1020.39
2023-05-04T03:57:41.760Z,1020.43
2023-05-04T03:58:41.771Z,1020.43
2023-05-04T03:59:41.784Z,1020.41
2023-05-04T04:00:41.807Z,1020.44
2023-05-04T04:01:41.807Z,1020.46
2023-05-04T04:02:42.040Z,1020.40
2023-05-04T04:03:41.910Z,1020.46
2023-05-04T04:04:41.915Z,1020.44
2023-05-04T04:05:41.854Z,1020.45
2023-05-04T04:06:43.440Z,1020.43
2023-05-04T04:07:41.881Z,1020.39
2023-05-04T04:08:41.889Z,1020.45
2023-05-04T04:09:41.900Z,1020.42
2023-05-04T04:10:41.922Z,1020.42
2023-05-04T04:11:41.926Z,1020.42
2023-05-04T04:12:41.970Z,1020.48
2023-05-04T04:13:41.965Z,1020.48
2023-05-04T04:14:41.972Z,1020.47
2023-05-04T04:15:42.816Z,1020.46
2023-05-04T04:16:42.060Z,1020.38
2023-05-04T04:17:42.010Z,1020.40
2023-05-04T04:18:42.019Z,1020.38
2023-05-04T04:19:42.029Z,1020.39
2023-05-04T04:20:42.037Z,1020.40
2023-05-04T04:21:42.039Z,1020.43
2023-05-04T04:22:42.053Z,1020.41
2023-05-04T04:23:42.063Z,1020.46
2023-05-04T04:24:42.072Z,1020.49
2023-05-04T04:25:43.039Z,1020.44
2023-05-04T04:26:42.124Z,1020.43
2023-05-04T04:27:42.114Z,1020.47
2023-05-04T04:28:42.119Z,1020.45
2023-05-04T04:29:42.133Z,1020.41
2023-05-04T04:30:42.154Z,1020.42
2023-05-04T04:31:42.208Z,1020.42
2023-05-04T04:32:42.211Z,1020.41
2023-05-04T04:33:42.176Z,1020.43
2023-05-04T04:34:42.187Z,1020.42
2023-05-04T04:35:42.198Z,1020.44
2023-05-04T04:36:42.209Z,1020.44
2023-05-04T04:37:42.238Z,1020.45
2023-05-04T04:38:42.232Z,1020.49
2023-05-04T04:39:42.332Z,1020.46
2023-05-04T04:40:42.255Z,1020.50
2023-05-04T04:41:42.283Z,1020.50
2023-05-04T04:42:42.291Z,1020.47
2023-05-04T04:43:42.291Z,1020.47
2023-05-04T04:44:42.303Z,1020.47
2023-05-04T04:45:42.313Z,1020.49
2023-05-04T04:46:42.367Z,1020.48
2023-05-04T04:47:42.367Z,1020.50
2023-05-04T04:48:42.348Z,1020.46
2023-05-04T04:49:42.365Z,1020.50
2023-05-04T04:50:42.382Z,1020.48
2023-05-04T04:51:42.385Z,1020.47
2023-05-04T04:52:42.399Z,1020.48
2023-05-04T04:53:42.407Z,1020.48
2023-05-04T04:54:42.419Z,1020.48
2023-05-04T04:55:42.438Z,1020.45
2023-05-04T04:56:42.441Z,1020.50
2023-05-04T04:57:42.455Z,1020.52
2023-05-04T04:58:42.468Z,1020.49
2023-05-04T04:59:42.484Z,1020.50
2023-05-04T05:00:42.503Z,1020.55
2023-05-04T05:01:42.505Z,1020.51
2023-05-04T05:02:42.590Z,1020.49
2023-05-04T05:03:42.525Z,1020.50
2023-05-04T05:04:42.649Z,1020.47
2023-05-04T05:05:42.551Z,1020.49
2023-05-04T05:06:42.569Z,1020.48
2023-05-04T05:07:42.579Z,1020.49
2023-05-04T05:08:42.621Z,1020.48
2023-05-04T05:09:42.599Z,1020.40
2023-05-04T05:10:43.956Z,1020.41
2023-05-04T05:11:42.631Z,1020.38
2023-05-04T05:12:42.714Z,1020.34
2023-05-04T05:13:42.650Z,1020.34
2023-05-04T05:14:42.673Z,1020.36
2023-05-04T05:15:42.677Z,1020.36
2023-05-04T05:16:42.810Z,1020.36
2023-05-04T05:17:42.737Z,1020.40
2023-05-04T05:18:42.713Z,1020.37
2023-05-04T05:19:42.721Z,1020.36
2023-05-04T05:20:42.736Z,1020.41
2023-05-04T05:21:42.748Z,1020.41
2023-05-04T05:22:42.808Z,1020.40
2023-05-04T05:23:42.774Z,1020.40
2023-05-04T05:24:42.782Z,1020.41
2023-05-04T05:25:42.798Z,1020.43
2023-05-04T05:26:42.811Z,1020.41
2023-05-04T05:27:42.817Z,1020.44
2023-05-04T05:28:42.838Z,1020.45
2023-05-04T05:29:42.844Z,1020.40
2023-05-04T05:30:42.900Z,1020.38
2023-05-04T05:31:42.872Z,1020.39
2023-05-04T05:32:42.935Z,1020.39
2023-05-04T05:33:42.897Z,1020.36
2023-05-04T05:34:42.942Z,1020.37
2023-05-04T05:35:42.922Z,1020.37
2023-05-04T05:36:42.932Z,1020.38
2023-05-04T05:37:42.944Z,1020.39
2023-05-04T05:38:42.966Z,1020.38
2023-05-04T05:39:42.978Z,1020.41
2023-05-04T05:40:42.980Z,1020.40
2023-05-04T05:41:42.996Z,1020.46
2023-05-04T05:42:43.009Z,1020.43
2023-05-04T05:43:43.026Z,1020.44
2023-05-04T05:44:43.034Z,1020.48
2023-05-04T05:45:43.055Z,1020.48
2023-05-04T05:46:43.155Z,1020.40
2023-05-04T05:47:43.112Z,1020.39
2023-05-04T05:48:43.088Z,1020.39
2023-05-04T05:49:45.436Z,1020.36
2023-05-04T05:50:43.150Z,1020.37
2023-05-04T05:51:43.135Z,1020.36
2023-05-04T05:52:43.141Z,1020.31
2023-05-04T05:53:43.162Z,1020.35
2023-05-04T05:54:43.168Z,1020.34
2023-05-04T05:55:43.250Z,1020.32
2023-05-04T05:56:43.206Z,1020.34
2023-05-04T05:57:43.230Z,1020.35
2023-05-04T05:58:43.222Z,1020.28
2023-05-04T05:59:43.246Z,1020.34
2023-05-04T06:00:43.258Z,1020.30
2023-05-04T06:01:43.268Z,1020.31
2023-05-04T06:02:43.387Z,1020.34
2023-05-04T06:03:43.531Z,1020.35
2023-05-04T06:04:43.351Z,1020.36
2023-05-04T06:05:43.320Z,1020.35
2023-05-04T06:06:45.137Z,1020.36
2023-05-04T06:07:43.346Z,1020.38
2023-05-04T06:08:43.357Z,1020.37
2023-05-04T06:09:43.380Z,1020.38
2023-05-04T06:10:43.413Z,1020.33
2023-05-04T06:11:43.402Z,1020.37
2023-05-04T06:12:43.433Z,1020.33
2023-05-04T06:13:43.433Z,1020.37
2023-05-04T06:14:43.442Z,1020.36
2023-05-04T06:15:43.458Z,1020.34
2023-05-04T06:16:44.014Z,1020.36
2023-05-04T06:17:43.526Z,1020.38
2023-05-04T06:18:43.498Z,1020.34
2023-05-04T06:19:43.513Z,1020.33
2023-05-04T06:20:43.529Z,1020.36
2023-05-04T06:21:43.545Z,1020.34
2023-05-04T06:22:43.563Z,1020.36
2023-05-04T06:23:43.590Z,1020.36
2023-05-04T06:24:43.586Z,1020.41
2023-05-04T06:25:43.617Z,1020.34
2023-05-04T06:26:43.618Z,1020.36
2023-05-04T06:27:43.725Z,1020.37
2023-05-04T06:28:43.647Z,1020.40
2023-05-04T06:29:43.668Z,1020.41
2023-05-04T06:30:43.680Z,1020.46
2023-05-04T06:31:43.979Z,1020.46
2023-05-04T06:32:43.724Z,1020.47
2023-05-04T06:33:43.740Z,1020.50
2023-05-04T06:34:43.746Z,1020.52
2023-05-04T06:35:43.767Z,1020.50
2023-05-04T06:36:43.782Z,1020.50
2023-05-04T06:37:43.810Z,1020.52
2023-05-04T06:38:43.831Z,1020.49
2023-05-04T06:39:43.859Z,1020.47
2023-05-04T06:40:43.900Z,1020.49
2023-05-04T06:41:43.875Z,1020.48
2023-05-04T06:42:43.908Z,1020.50
2023-05-04T06:43:43.927Z,1020.51
2023-05-04T06:44:43.956Z,1020.55
2023-05-04T06:45:43.987Z,1020.50
2023-05-04T06:46:43.976Z,1020.51
2023-05-04T06:47:44.021Z,1020.52
2023-05-04T06:48:44.017Z,1020.53
2023-05-04T06:49:44.036Z,1020.48
2023-05-04T06:50:44.059Z,1020.50
2023-05-04T06:51:44.081Z,1020.50
2023-05-04T06:52:44.098Z,1020.51
2023-05-04T06:53:44.118Z,1020.49
2023-05-04T06:54:44.143Z,1020.46
2023-05-04T06:55:44.169Z,1020.47
2023-05-04T06:56:44.182Z,1020.44
2023-05-04T06:57:44.204Z,1020.50
2023-05-04T06:58:44.233Z,1020.46
2023-05-04T06:59:44.247Z,1020.45
2023-05-04T07:00:44.305Z,1020.39
2023-05-04T07:01:44.306Z,1020.38
2023-05-04T07:02:44.383Z,1020.39
2023-05-04T07:03:44.366Z,1020.34
2023-05-04T07:04:44.358Z,1020.38
2023-05-04T07:05:44.379Z,1020.42
2023-05-04T07:06:44.404Z,1020.47
2023-05-04T07:07:44.426Z,1020.47
2023-05-04T07:08:44.449Z,1020.48
2023-05-04T07:09:44.469Z,1020.49
2023-05-04T07:10:44.492Z,1020.47
2023-05-04T07:11:44.518Z,1020.54
2023-05-04T07:12:44.546Z,1020.51
2023-05-04T07:13:44.567Z,1020.50
2023-05-04T07:14:44.588Z,1020.48
2023-05-04T07:15:44.608Z,1020.48
2023-05-04T07:16:44.822Z,1020.51
2023-05-04T07:17:44.688Z,1020.51
2023-05-04T07:18:44.674Z,1020.55
2023-05-04T07:19:44.710Z,1020.49
2023-05-04T07:20:44.737Z,1020.48
2023-05-04T07:21:44.765Z,1020.46
2023-05-04T07:22:44.778Z,1020.46
2023-05-04T07:23:44.799Z,1020.46
2023-05-04T07:24:44.821Z,1020.47
2023-05-04T07:25:44.848Z,1020.47
2023-05-04T07:26:44.867Z,1020.48
2023-05-04T07:27:44.899Z,1020.45
2023-05-04T07:28:44.915Z,1020.41
2023-05-04T07:29:44.948Z,1020.41
2023-05-04T07:30:44.965Z,1020.38
2023-05-04T07:31:45.055Z,1020.35
2023-05-04T07:32:45.042Z,1020.35
2023-05-04T07:33:45.050Z,1020.37
2023-05-04T07:34:46.456Z,1020.29
2023-05-04T07:35:45.094Z,1020.30
2023-05-04T07:36:45.112Z,1020.29
2023-05-04T07:37:45.141Z,1020.26
2023-05-04T07:38:45.348Z,1020.26
2023-05-04T07:39:45.196Z,1020.26
2023-05-04T07:40:45.216Z,1020.24
2023-05-04T07:41:45.931Z,1020.22
2023-05-04T07:42:45.263Z,1020.28
2023-05-04T07:43:45.288Z,1020.23
2023-05-04T07:44:45.309Z,1020.26
2023-05-04T07:45:45.382Z,1020.25
2023-05-04T07:46:45.370Z,1020.23
2023-05-04T07:47:45.427Z,1020.22
2023-05-04T07:48:45.415Z,1020.20
2023-05-04T07:49:45.441Z,1020.21
2023-05-04T07:50:45.480Z,1020.17
2023-05-04T07:51:45.494Z,1020.14
2023-05-04T07:52:45.554Z,1020.18
2023-05-04T07:53:45.549Z,1020.16
2023-05-04T07:54:45.576Z,1020.14
2023-05-04T07:55:45.596Z,1020.14
2023-05-04T07:56:45.622Z,1020.12
2023-05-04T07:57:45.647Z,1020.12
2023-05-04T07:58:45.679Z,1020.19
2023-05-04T07:59:45.712Z,1020.15
2023-05-04T08:00:45.735Z,1020.18
2023-05-04T08:01:45.785Z,1020.16
2023-05-04T08:02:45.872Z,1020.14
2023-05-04T08:03:45.817Z,1020.12
2023-05-04T08:04:45.835Z,1020.11
2023-05-04T08:05:45.872Z,1020.13
2023-05-04T08:06:45.887Z,1020.08
2023-05-04T08:07:45.914Z,1020.14
2023-05-04T08:08:45.938Z,1020.11
2023-05-04T08:09:45.972Z,1020.11
2023-05-04T08:10:45.990Z,1020.04
2023-05-04T08:11:47.090Z,1019.96
2023-05-04T08:12:46.056Z,1019.97
2023-05-04T08:13:46.069Z,1019.99
2023-05-04T08:14:46.099Z,1020.02
2023-05-04T08:15:46.124Z,1020.02
2023-05-04T08:16:46.166Z,1019.97
2023-05-04T08:17:46.219Z,1020.01
2023-05-04T08:18:46.213Z,1020.04
2023-05-04T08:19:46.225Z,1019.98
2023-05-04T08:20:46.249Z,1020.01
2023-05-04T08:21:46.277Z,1020.01
2023-05-04T08:22:46.296Z,1019.99
2023-05-04T08:23:46.334Z,1019.96
2023-05-04T08:24:46.355Z,1019.96
2023-05-04T08:25:46.370Z,1019.94
2023-05-04T08:26:52.614Z,1019.97
2023-05-04T08:27:46.730Z,1019.97
2023-05-04T08:28:46.457Z,1019.96
2023-05-04T08:29:46.475Z,1019.94
2023-05-04T08:30:46.495Z,1019.97
2023-05-04T08:31:46.615Z,1019.96
2023-05-04T08:32:46.577Z,1019.92
2023-05-04T08:33:46.560Z,1019.98
2023-05-04T08:34:46.587Z,1019.98
2023-05-04T08:35:46.611Z,1019.92
2023-05-04T08:36:46.630Z,1019.97
2023-05-04T08:37:46.653Z,1019.94
2023-05-04T08:38:46.678Z,1019.94
2023-05-04T08:39:46.704Z,1019.95
2023-05-04T08:40:48.123Z,1019.94
2023-05-04T08:41:46.741Z,1019.90
2023-05-04T08:42:46.764Z,1019.97
2023-05-04T08:43:46.799Z,1019.93
2023-05-04T08:44:46.812Z,1019.92
2023-05-04T08:45:46.852Z,1019.91
2023-05-04T08:46:46.858Z,1019.89
2023-05-04T08:47:46.905Z,1019.86
2023-05-04T08:48:46.896Z,1019.85
2023-05-04T08:49:46.915Z,1019.88
2023-05-04T08:50:46.939Z,1019.87
2023-05-04T08:51:46.961Z,1019.82
2023-05-04T08:52:46.982Z,1019.85
2023-05-04T08:53:47.003Z,1019.88
2023-05-04T08:54:47.025Z,1019.82
2023-05-04T08:55:47.047Z,1019.79
2023-05-04T08:56:47.069Z,1019.82
2023-05-04T08:57:47.360Z,1019.78
2023-05-04T08:58:47.118Z,1019.82
2023-05-04T08:59:47.127Z,1019.83
2023-05-04T09:00:47.188Z,1019.82
2023-05-04T09:01:47.254Z,1019.75
2023-05-04T09:02:47.264Z,1019.76
2023-05-04T09:03:47.283Z,1019.76
2023-05-04T09:04:47.231Z,1019.70
2023-05-04T09:05:47.257Z,1019.69
2023-05-04T09:06:47.278Z,1019.71
2023-05-04T09:07:47.299Z,1019.72
2023-05-04T09:08:47.317Z,1019.74
2023-05-04T09:09:47.341Z,1019.76
2023-05-04T09:10:47.379Z,1019.79
2023-05-04T09:11:47.386Z,1019.75
2023-05-04T09:12:47.400Z,1019.79
2023-05-04T09:13:47.420Z,1019.72
2023-05-04T09:14:47.455Z,1019.69
2023-05-04T09:15:47.576Z,1019.76
2023-05-04T09:16:47.508Z,1019.76
2023-05-04T09:17:57.088Z,1019.73
2023-05-04T09:18:47.522Z,1019.73
2023-05-04T09:19:47.549Z,1019.74
2023-05-04T09:20:47.628Z,1019.70
2023-05-04T09:21:47.590Z,1019.72
2023-05-04T09:22:47.614Z,1019.71
2023-05-04T09:23:47.721Z,1019.74
2023-05-04T09:24:47.653Z,1019.69
2023-05-04T09:25:47.675Z,1019.67
2023-05-04T09:26:47.694Z,1019.70
2023-05-04T09:27:47.720Z,1019.73
2023-05-04T09:28:47.763Z,1019.69
2023-05-04T09:29:47.765Z,1019.70
2023-05-04T09:30:47.808Z,1019.67
2023-05-04T09:31:47.813Z,1019.71
2023-05-04T09:32:47.861Z,1019.69
2023-05-04T09:33:47.854Z,1019.72
2023-05-04T09:34:47.868Z,1019.68
2023-05-04T09:35:47.889Z,1019.66
2023-05-04T09:36:47.912Z,1019.67
2023-05-04T09:37:47.945Z,1019.59
2023-05-04T09:38:47.953Z,1019.63
2023-05-04T09:39:47.978Z,1019.60
2023-05-04T09:40:48.001Z,1019.54
2023-05-04T09:41:48.020Z,1019.50
2023-05-04T09:42:48.043Z,1019.56
2023-05-04T09:43:48.080Z,1019.58
2023-05-04T09:44:48.081Z,1019.56
2023-05-04T09:45:48.106Z,1019.58
2023-05-04T09:46:48.185Z,1019.62
2023-05-04T09:47:48.221Z,1019.60
2023-05-04T09:48:48.186Z,1019.60
2023-05-04T09:49:48.196Z,1019.57
2023-05-04T09:50:48.242Z,1019.58
2023-05-04T09:51:48.237Z,1019.54
2023-05-04T09:52:48.271Z,1019.61
2023-05-04T09:53:48.282Z,1019.61
2023-05-04T09:54:48.319Z,1019.58
2023-05-04T09:55:48.332Z,1019.50
2023-05-04T09:56:48.359Z,1019.49
2023-05-04T09:57:48.373Z,1019.51
2023-05-04T09:58:48.404Z,1019.50
2023-05-04T09:59:48.425Z,1019.50
2023-05-04T10:00:48.456Z,1019.41
2023-05-04T10:01:48.539Z,1019.39
2023-05-04T10:02:48.604Z,1019.37
2023-05-04T10:03:48.542Z,1019.30
2023-05-04T10:04:48.546Z,1019.30
2023-05-04T10:05:48.611Z,1019.34
2023-05-04T10:06:48.599Z,1019.36
2023-05-04T10:07:48.621Z,1019.33
2023-05-04T10:08:48.646Z,1019.23
2023-05-04T10:09:48.712Z,1019.30
2023-05-04T10:10:48.694Z,1019.23
2023-05-04T10:11:48.722Z,1019.27
2023-05-04T10:12:48.775Z,1019.28
2023-05-04T10:13:48.769Z,1019.27
2023-05-04T10:14:48.798Z,1019.26
2023-05-04T10:15:48.887Z,1019.21
2023-05-04T10:16:48.910Z,1019.23
2023-05-04T10:17:48.909Z,1019.23
2023-05-04T10:18:48.901Z,1019.25
2023-05-04T10:19:48.930Z,1019.31
2023-05-04T10:20:48.957Z,1019.26
2023-05-04T10:21:48.982Z,1019.20
2023-05-04T10:22:49.017Z,1019.16
2023-05-04T10:23:49.036Z,1019.20
2023-05-04T10:24:49.069Z,1019.16
2023-05-04T10:25:49.097Z,1019.14
2023-05-04T10:26:49.126Z,1019.11
2023-05-04T10:27:49.159Z,1019.16
2023-05-04T10:28:49.179Z,1019.10
2023-05-04T10:29:49.209Z,1019.09
2023-05-04T10:30:49.238Z,1019.11
2023-05-04T10:31:49.306Z,1019.10
2023-05-04T10:32:49.307Z,1019.10
2023-05-04T10:33:49.334Z,1019.12
2023-05-04T10:34:49.365Z,1019.10
2023-05-04T10:35:49.382Z,1019.09
2023-05-04T10:36:49.411Z,1019.09
2023-05-04T10:37:49.445Z,1019.06
2023-05-04T10:38:49.477Z,1019.06
2023-05-04T10:39:49.501Z,1019.02
2023-05-04T10:40:49.532Z,1018.95
2023-05-04T10:41:49.563Z,1018.94
2023-05-04T10:42:49.596Z,1018.96
2023-05-04T10:43:49.619Z,1018.95
2023-05-04T10:44:49.667Z,1018.92
2023-05-04T10:45:49.746Z,1018.93
2023-05-04T10:46:49.729Z,1018.93
2023-05-04T10:47:49.772Z,1018.83
2023-05-04T10:48:49.766Z,1018.82
2023-05-04T10:49:49.795Z,1018.83
2023-05-04T10:50:49.861Z,1018.86
2023-05-04T10:51:49.907Z,1018.84
2023-05-04T10:52:49.898Z,1018.81
2023-05-04T10:53:49.926Z,1018.77
2023-05-04T10:54:49.947Z,1018.80
2023-05-04T10:55:49.977Z,1018.71
2023-05-04T10:56:50.004Z,1018.69
2023-05-04T10:57:50.033Z,1018.67
2023-05-04T10:58:50.065Z,1018.66
2023-05-04T10:59:50.102Z,1018.63
2023-05-04T11:00:50.133Z,1018.67
2023-05-04T11:01:50.149Z,1018.61
2023-05-04T11:02:50.428Z,1018.62
2023-05-04T11:03:50.265Z,1018.64
2023-05-04T11:04:50.240Z,1018.59
2023-05-04T11:05:50.282Z,1018.60
2023-05-04T11:06:50.297Z,1018.61
2023-05-04T11:07:50.325Z,1018.63
2023-05-04T11:08:50.357Z,1018.64
2023-05-04T11:09:50.388Z,1018.63
2023-05-04T11:10:50.426Z,1018.69
2023-05-04T11:11:50.450Z,1018.65
2023-05-04T11:12:50.509Z,1018.60
2023-05-04T11:13:50.510Z,1018.61
2023-05-04T11:14:50.537Z,1018.59
2023-05-04T11:15:50.567Z,1018.58
2023-05-04T11:16:50.637Z,1018.52
2023-05-04T11:17:50.666Z,1018.57
2023-05-04T11:18:50.685Z,1018.53
2023-05-04T11:19:50.689Z,1018.53
2023-05-04T11:20:50.717Z,1018.48
2023-05-04T11:21:50.751Z,1018.48
2023-05-04T11:22:50.798Z,1018.44
2023-05-04T11:23:50.815Z,1018.47
2023-05-04T11:24:50.851Z,1018.46
2023-05-04T11:25:50.900Z,1018.47
2023-05-04T11:26:50.910Z,1018.39
2023-05-04T11:27:50.940Z,1018.42
2023-05-04T11:28:50.970Z,1018.36
2023-05-04T11:29:51.009Z,1018.37
2023-05-04T11:30:51.032Z,1018.35
2023-05-04T11:31:51.076Z,1018.35
2023-05-04T11:32:51.200Z,1018.38
2023-05-04T11:33:51.123Z,1018.39
2023-05-04T11:34:51.157Z,1018.40
2023-05-04T11:35:51.187Z,1018.35
2023-05-04T11:36:51.224Z,1018.36
2023-05-04T11:37:51.253Z,1018.37
2023-05-04T11:38:51.284Z,1018.34
2023-05-04T11:39:51.312Z,1018.34
2023-05-04T11:40:51.351Z,1018.32
2023-05-04T11:41:51.389Z,1018.35
2023-05-04T11:42:51.426Z,1018.32
2023-05-04T11:43:51.435Z,1018.35
2023-05-04T11:44:51.469Z,1018.30
2023-05-04T11:45:51.497Z,1018.26
2023-05-04T11:46:51.627Z,1018.28
2023-05-04T11:47:51.595Z,1018.22
2023-05-04T11:48:51.590Z,1018.29
2023-05-04T11:49:51.628Z,1018.31
2023-05-04T11:50:51.655Z,1018.33
2023-05-04T11:51:51.687Z,1018.25
2023-05-04T11:52:51.733Z,1018.29
2023-05-04T11:53:51.746Z,1018.35
2023-05-04T11:54:52.477Z,1018.29
2023-05-04T11:55:51.809Z,1018.26
2023-05-04T11:56:51.884Z,1018.25
2023-05-04T11:57:51.864Z,1018.23
2023-05-04T11:58:51.900Z,1018.23
2023-05-04T11:59:51.922Z,1018.19
2023-05-04T12:00:52.402Z,1018.14
2023-05-04T12:01:51.983Z,1018.14
2023-05-04T12:02:52.099Z,1018.10
2023-05-04T12:03:54.142Z,1018.12
2023-05-04T12:04:52.084Z,1018.10
2023-05-04T12:05:52.208Z,1018.08